Time;durP1;ratioP1;P1;durP2;ratioP2;P2;SDS_P1;SDS_P2;PMS_P1;PMS_P2;Temp;Humidity;BMP_temperature;BMP_pressure;BME280_temperature;BME280_humidity;BME280_pressure;Samples;Min_cycle;Max_cycle;Signal;HPM_P1;HPM_P2
2022/07/08 00:01:07;;;;;;;13.18;2.55;;;;;;;13.96;63.97;101613.63;10409355;28;20053;-80
2022/07/08 00:06:09;;;;;;;10.13;1.90;;;;;;;14.10;63.61;101620.69;10393990;28;21161;-80
2022/07/08 00:11:12;;;;;;;15.68;2.47;;;;;;;13.99;63.48;101618.81;10393071;28;20044;-80
2022/07/08 00:16:17;;;;;;;14.55;2.97;;;;;;;13.55;65.09;101628.41;10404468;28;20140;-80
2022/07/08 00:21:20;;;;;;;11.57;2.70;;;;;;;13.94;64.01;101621.84;10401467;28;20053;-81
2022/07/08 00:26:23;;;;;;;10.70;2.20;;;;;;;13.88;63.99;101627.72;10414550;28;20041;-80
2022/07/08 00:31:28;;;;;;;13.55;2.80;;;;;;;13.46;64.29;101629.91;10385692;28;20510;-80
2022/07/08 00:36:31;;;;;;;11.23;2.10;;;;;;;13.63;64.27;101634.09;10398630;28;20071;-80
2022/07/08 00:41:34;;;;;;;7.68;2.10;;;;;;;13.92;62.72;101633.75;10423165;28;20153;-79
2022/07/08 00:46:38;;;;;;;16.02;2.20;;;;;;;14.05;62.90;101634.53;10420157;28;20628;-81
2022/07/08 00:51:43;;;;;;;12.07;2.33;;;;;;;14.02;62.92;101640.19;10406212;28;20156;-81
2022/07/08 00:56:47;;;;;;;10.43;2.60;;;;;;;13.76;63.96;101646.66;10405194;28;20079;-81
2022/07/08 01:01:51;;;;;;;11.63;2.35;;;;;;;14.10;63.07;101643.16;10409968;28;20170;-80
2022/07/08 01:06:54;;;;;;;10.63;2.92;;;;;;;13.59;64.54;101658.72;10400705;28;20155;-80
2022/07/08 01:11:57;;;;;;;11.80;2.90;;;;;;;13.77;64.06;101645.69;10403571;28;20045;-80
2022/07/08 01:17:02;;;;;;;10.07;2.13;;;;;;;13.74;63.68;101652.19;10406184;28;20068;-81
2022/07/08 01:22:06;;;;;;;10.35;2.13;;;;;;;13.83;64.36;101656.06;10398935;28;20053;-80
2022/07/08 01:27:09;;;;;;;15.57;2.67;;;;;;;13.86;64.26;101651.28;10403851;28;20064;-81
2022/07/08 01:32:12;;;;;;;7.70;1.58;;;;;;;13.44;65.43;101658.03;10392309;28;20348;-80
2022/07/08 01:37:16;;;;;;;9.70;1.80;;;;;;;13.54;65.04;101650.09;10398007;28;20068;-80
2022/07/08 01:42:21;;;;;;;14.70;2.45;;;;;;;13.68;64.49;101645.38;10390371;28;20072;-80
2022/07/08 01:47:24;;;;;;;9.90;2.10;;;;;;;13.40;65.46;101651.97;10399697;28;20404;-80
2022/07/08 01:52:28;;;;;;;12.15;2.20;;;;;;;13.33;65.49;101645.28;10396713;28;20069;-81
2022/07/08 01:57:31;;;;;;;17.45;2.97;;;;;;;13.24;65.59;101648.63;10396900;28;21179;-81
2022/07/08 02:02:34;;;;;;;10.50;2.17;;;;;;;13.42;65.50;101646.47;10412277;28;20060;-80
2022/07/08 02:07:39;;;;;;;11.35;2.03;;;;;;;13.25;65.50;101639.59;10418011;28;20052;-81
2022/07/08 02:12:42;;;;;;;7.95;2.25;;;;;;;13.13;65.87;101645.84;10402761;28;20056;-81
2022/07/08 02:17:45;;;;;;;8.45;2.67;;;;;;;12.89;66.45;101638.56;10413379;28;20128;-81
2022/07/08 02:22:50;;;;;;;7.97;2.15;;;;;;;13.10;65.33;101641.53;10406093;28;20422;-80
2022/07/08 02:27:53;;;;;;;11.02;2.13;;;;;;;13.09;65.40;101647.06;10399506;28;20101;-80
2022/07/08 02:32:55;;;;;;;12.18;2.40;;;;;;;13.11;65.78;101645.97;10412244;28;20048;-81
2022/07/08 02:38:00;;;;;;;7.07;1.85;;;;;;;13.47;64.54;101647.00;10404465;28;20041;-80
2022/07/08 02:43:03;;;;;;;10.63;2.13;;;;;;;13.27;64.92;101659.19;10405623;28;20052;-80
2022/07/08 02:48:06;;;;;;;12.65;2.40;;;;;;;13.21;65.52;101648.84;10399643;28;20053;-80
2022/07/08 02:53:10;;;;;;;6.40;1.88;;;;;;;13.04;65.70;101650.94;10409163;28;20466;-80
2022/07/08 02:58:13;;;;;;;9.18;2.17;;;;;;;13.11;66.11;101653.19;10413789;28;20059;-80
2022/07/08 03:03:16;;;;;;;9.10;1.90;;;;;;;13.40;64.92;101654.66;10417200;28;20053;-80
2022/07/08 03:08:20;;;;;;;7.93;1.67;;;;;;;13.31;65.50;101655.31;10405421;28;20139;-80
2022/07/08 03:13:23;;;;;;;7.38;1.67;;;;;;;13.23;65.53;101657.72;10408805;28;20044;-80
2022/07/08 03:18:26;;;;;;;14.82;2.10;;;;;;;13.21;65.87;101660.50;10403499;28;20059;-80
2022/07/08 03:23:31;;;;;;;13.02;2.00;;;;;;;13.03;66.63;101664.53;10404874;28;20117;-80
2022/07/08 03:28:34;;;;;;;9.30;2.47;;;;;;;12.94;66.80;101665.19;10408634;28;20068;-80
2022/07/08 03:33:37;;;;;;;8.82;2.25;;;;;;;12.78;67.30;101660.00;10405090;28;20069;-80
2022/07/08 03:38:41;;;;;;;9.27;2.05;;;;;;;12.60;67.88;101654.94;10398104;28;20065;-80
2022/07/08 03:43:44;;;;;;;6.95;2.20;;;;;;;13.25;66.46;101672.81;10385212;28;20045;-80
2022/07/08 03:48:47;;;;;;;7.50;1.77;;;;;;;13.17;66.52;101682.44;10402194;28;20045;-81
2022/07/08 03:53:52;;;;;;;13.55;2.78;;;;;;;13.58;65.40;101684.88;10398285;28;20049;-80
2022/07/08 03:58:55;;;;;;;8.18;2.15;;;;;;;12.87;67.63;101709.75;10408189;28;20055;-80
2022/07/08 04:03:58;;;;;;;8.68;2.13;;;;;;;13.11;67.21;101709.84;10404602;28;20049;-80
2022/07/08 04:09:02;;;;;;;7.43;1.90;;;;;;;13.46;66.13;101712.75;10399931;28;20110;-80
2022/07/08 04:14:05;;;;;;;7.70;1.95;;;;;;;13.15;65.69;101719.44;10399806;28;20051;-81
2022/07/08 04:19:08;;;;;;;9.80;2.05;;;;;;;12.89;66.27;101721.28;10403063;28;20052;-80
2022/07/08 04:24:13;;;;;;;10.52;1.60;;;;;;;13.15;65.76;101717.63;10406347;28;20473;-80
2022/07/08 04:29:15;;;;;;;9.07;2.78;;;;;;;13.27;65.25;101721.25;10397399;28;20719;-81
2022/07/08 04:34:18;;;;;;;8.25;2.20;;;;;;;13.63;64.30;101730.41;10396910;28;20057;-80
2022/07/08 04:39:23;;;;;;;7.65;1.90;;;;;;;13.30;65.44;101744.47;10399321;28;20148;-80
2022/07/08 04:44:26;;;;;;;7.28;1.88;;;;;;;13.17;65.02;101741.81;10396601;28;20057;-80
2022/07/08 04:49:29;;;;;;;8.70;1.98;;;;;;;13.64;64.39;101753.75;10405636;28;20049;-80
2022/07/08 04:54:33;;;;;;;7.30;2.20;;;;;;;13.84;63.67;101747.75;10401103;28;20380;-79
2022/07/08 04:59:36;;;;;;;11.20;2.28;;;;;;;13.90;63.93;101743.72;10405829;28;20045;-79
2022/07/08 05:04:39;;;;;;;6.70;1.98;;;;;;;13.47;64.83;101750.44;10407549;28;20045;-79
2022/07/08 05:09:43;;;;;;;14.02;2.42;;;;;;;13.84;63.76;101744.19;10396521;28;20057;-79
2022/07/08 05:14:47;;;;;;;9.38;1.85;;;;;;;13.84;64.49;101753.16;10400554;28;20064;-78
2022/07/08 05:19:50;;;;;;;10.68;2.10;;;;;;;13.80;63.27;101748.97;10400811;28;21266;-79
2022/07/08 05:24:54;;;;;;;9.45;1.55;;;;;;;14.20;63.29;101747.84;10414198;28;20049;-79
2022/07/08 05:29:57;;;;;;;9.75;1.90;;;;;;;13.80;63.77;101759.78;10388011;28;20049;-80
2022/07/08 05:35:01;;;;;;;12.15;2.08;;;;;;;14.47;62.18;101753.03;10404576;28;20112;-79
2022/07/08 05:40:07;;;;;;;7.78;1.98;;;;;;;13.67;64.01;101756.22;10400158;28;20103;-80
2022/07/08 05:45:11;;;;;;;10.82;2.30;;;;;;;13.87;63.90;101762.88;10410553;28;20053;-79
2022/07/08 05:50:14;;;;;;;8.95;1.88;;;;;;;14.33;61.89;101771.13;10403068;28;20147;-80
2022/07/08 05:55:19;;;;;;;7.38;2.00;;;;;;;14.48;61.99;101766.47;10404740;28;20061;-80
2022/07/08 06:00:22;;;;;;;10.35;2.47;;;;;;;13.67;63.86;101775.13;10401219;28;21295;-80
2022/07/08 06:05:25;;;;;;;13.82;2.10;;;;;;;13.95;63.22;101776.69;10396008;28;20050;-80
2022/07/08 06:10:30;;;;;;;13.30;1.83;;;;;;;14.33;62.34;101773.84;10398321;28;20081;-80
2022/07/08 06:15:33;;;;;;;7.45;2.35;;;;;;;14.24;62.69;101779.94;10399442;28;20171;-80
2022/07/08 06:20:36;;;;;;;7.35;1.95;;;;;;;14.89;60.55;101781.34;10397562;28;20045;-79
2022/07/08 06:25:40;;;;;;;13.02;2.40;;;;;;;15.25;60.33;101791.16;10402673;28;20057;-80
2022/07/08 06:30:43;;;;;;;8.85;1.77;;;;;;;15.01;59.76;101798.47;10409561;28;20071;-80
2022/07/08 06:35:47;;;;;;;7.95;1.55;;;;;;;14.50;60.98;101801.47;10409274;28;20053;-79
2022/07/08 06:40:51;;;;;;;10.75;1.75;;;;;;;15.54;58.39;101798.81;10405641;28;20049;-79
2022/07/08 06:45:54;;;;;;;6.53;2.05;;;;;;;15.73;57.97;101803.63;10401086;28;20040;-79
2022/07/08 06:50:57;;;;;;;12.82;1.90;;;;;;;16.31;56.49;101787.19;10401085;28;20046;-80
2022/07/08 06:56:01;;;;;;;7.63;2.05;;;;;;;15.89;57.59;101790.56;10409905;28;20123;-79
2022/07/08 07:01:04;;;;;;;10.85;1.90;;;;;;;15.53;57.40;101793.53;10399229;28;20048;-79
2022/07/08 07:06:08;;;;;;;6.30;1.77;;;;;;;16.62;56.09;101785.47;10399673;28;20045;-79
2022/07/08 07:11:12;;;;;;;8.40;2.65;;;;;;;16.27;56.25;101789.28;10422038;28;20698;-80
2022/07/08 07:16:15;;;;;;;9.43;1.55;;;;;;;16.73;55.19;101798.09;10411962;28;20088;-80
2022/07/08 07:21:18;;;;;;;8.85;2.30;;;;;;;17.92;52.64;101793.09;10403446;28;20061;-80
2022/07/08 07:26:22;;;;;;;6.25;1.35;;;;;;;18.30;49.88;101802.38;10408007;28;20049;-80
2022/07/08 07:31:25;;;;;;;7.65;1.70;;;;;;;17.75;51.25;101801.91;10386475;28;20052;-80
2022/07/08 07:36:28;;;;;;;12.27;1.77;;;;;;;17.25;51.57;101818.06;10397797;28;20059;-80
2022/07/08 07:41:33;;;;;;;8.88;1.50;;;;;;;21.35;43.28;101804.31;10418774;28;20052;-80
2022/07/08 07:46:36;;;;;;;5.63;1.38;;;;;;;22.62;39.41;101819.91;10415134;28;20046;-80
2022/07/08 07:51:39;;;;;;;14.60;1.65;;;;;;;18.96;45.96;101831.66;10399780;28;20052;-80
2022/07/08 07:56:43;;;;;;;3.30;1.00;;;;;;;18.98;46.80;101835.09;10411016;28;20041;-79
2022/07/08 08:01:46;;;;;;;10.38;2.72;;;;;;;20.99;44.36;101831.69;10400966;28;20045;-79
2022/07/08 08:06:49;;;;;;;5.88;1.92;;;;;;;21.59;41.45;101813.69;10397608;28;20056;-79
2022/07/08 08:11:58;;;;;;;6.88;1.55;;;;;;;17.76;49.48;101830.78;10399187;28;20045;-79
2022/07/08 08:17:01;;;;;;;7.28;1.20;;;;;;;17.07;51.93;101834.09;10394031;28;20052;-80
2022/07/08 08:22:04;;;;;;;7.53;1.42;;;;;;;17.52;51.22;101830.25;10390673;28;20052;-80
2022/07/08 08:27:09;;;;;;;7.68;1.50;;;;;;;18.31;49.40;101844.03;10402287;28;20057;-80
2022/07/08 08:32:15;;;;;;;10.60;1.80;;;;;;;18.57;48.41;101837.06;10401165;28;20057;-79
2022/07/08 08:37:18;;;;;;;5.80;1.23;;;;;;;18.10;47.73;101836.84;10407798;28;20053;-79
2022/07/08 08:42:23;;;;;;;8.50;1.48;;;;;;;19.88;45.97;101827.41;10396925;28;20049;-79
2022/07/08 08:47:28;;;;;;;8.73;2.42;;;;;;;21.08;43.30;101831.78;10407007;28;20061;-80
2022/07/08 08:52:31;;;;;;;5.47;1.40;;;;;;;20.99;43.52;101828.97;10403468;28;20061;-79
2022/07/08 08:57:36;;;;;;;8.20;1.42;;;;;;;20.49;43.48;101836.88;10385498;28;20053;-79
2022/07/08 09:02:39;;;;;;;4.88;1.30;;;;;;;19.94;44.36;101826.81;10409001;28;20200;-80
2022/07/08 09:07:44;;;;;;;5.13;1.30;;;;;;;19.74;46.27;101819.72;10399115;28;21135;-79
2022/07/08 09:13:10;;;;;;;9.25;1.88;;;;;;;19.21;47.13;101827.47;10402830;28;20044;-79
2022/07/08 09:18:14;;;;;;;8.07;2.17;;;;;;;18.57;48.88;101828.91;10396122;28;20091;-80
2022/07/08 09:23:20;;;;;;;7.18;2.95;;;;;;;17.85;51.28;101824.56;10397660;28;20048;-80
2022/07/08 09:28:31;;;;;;;4.97;1.30;;;;;;;17.84;49.70;101830.13;10407959;28;20045;-80
2022/07/08 09:33:36;;;;;;;4.03;1.47;;;;;;;18.67;48.23;101838.91;10409357;28;20052;-79
2022/07/08 09:38:42;;;;;;;3.75;1.27;;;;;;;21.19;43.74;101815.13;10399220;28;20056;-79
2022/07/08 09:43:48;;;;;;;5.03;1.42;;;;;;;21.70;42.30;101818.03;10393923;28;20047;-80
2022/07/08 09:48:51;;;;;;;6.47;1.50;;;;;;;20.59;44.98;101812.22;10376274;28;20041;-79
2022/07/08 09:54:09;;;;;;;5.95;1.65;;;;;;;20.11;45.59;101817.81;10377869;28;20054;-80
2022/07/08 09:59:13;;;;;;;5.20;1.25;;;;;;;19.53;46.53;101818.06;10397526;28;20060;-80
2022/07/08 10:04:18;;;;;;;8.52;1.52;;;;;;;20.36;45.94;101807.22;10406158;28;20056;-80
2022/07/08 10:09:22;;;;;;;3.40;1.20;;;;;;;20.95;44.75;101807.56;10402126;28;20061;-80
2022/07/08 10:14:28;;;;;;;5.10;1.20;;;;;;;21.75;43.67;101807.47;10391853;28;20075;-80
2022/07/08 10:19:35;;;;;;;7.28;1.40;;;;;;;19.77;46.50;101811.25;10400959;28;20049;-79
2022/07/08 10:24:41;;;;;;;7.45;1.52;;;;;;;20.41;45.13;101807.63;10412214;28;21309;-80
2022/07/08 10:29:46;;;;;;;7.55;1.63;;;;;;;19.59;47.06;101806.59;10402143;28;20392;-79
2022/07/08 10:35:08;;;;;;;6.20;1.80;;;;;;;20.31;47.14;101802.22;10428092;28;20044;-80
2022/07/08 10:40:12;;;;;;;5.88;1.42;;;;;;;20.59;46.83;101807.59;10417798;28;20049;-80
2022/07/08 10:45:18;;;;;;;3.25;1.30;;;;;;;20.82;45.36;101798.97;10409583;28;20040;-80
2022/07/08 10:50:24;;;;;;;7.60;1.15;;;;;;;21.15;44.75;101802.84;10414813;28;20073;-79
2022/07/08 10:55:27;;;;;;;5.40;1.20;;;;;;;21.14;45.07;101810.16;10386508;28;20092;-80
2022/07/08 11:00:35;;;;;;;5.72;1.55;;;;;;;19.88;47.62;101813.78;10383807;28;20395;-79
2022/07/08 11:05:40;;;;;;;5.80;1.48;;;;;;;20.67;46.00;101817.75;10389549;28;20502;-80
2022/07/08 11:10:44;;;;;;;9.48;1.80;;;;;;;21.57;44.73;101805.66;10400093;28;20058;-81
2022/07/08 11:15:54;;;;;;;6.15;1.30;;;;;;;20.04;47.91;101815.84;10398493;28;20514;-80
2022/07/08 11:21:00;;;;;;;6.00;1.20;;;;;;;21.97;45.00;101814.22;10409703;28;20052;-81
2022/07/08 11:26:03;;;;;;;5.72;1.42;;;;;;;20.95;46.61;101815.78;10388005;28;20080;-81
2022/07/08 11:31:18;;;;;;;7.15;1.70;;;;;;;20.21;48.30;101823.19;10387382;28;20217;-81
2022/07/08 11:36:21;;;;;;;6.20;2.13;;;;;;;20.56;47.52;101811.50;10409618;28;20056;-80
2022/07/08 11:41:24;;;;;;;4.07;1.35;;;;;;;20.56;47.95;101807.91;10405564;28;20049;-81
2022/07/08 11:46:28;;;;;;;6.65;2.47;;;;;;;21.91;45.61;101798.47;10395917;28;20597;-80
2022/07/08 11:51:31;;;;;;;2.83;1.40;;;;;;;23.86;42.79;101794.94;10399809;28;20048;-80
2022/07/08 11:56:34;;;;;;;5.90;2.00;;;;;;;22.84;43.82;101793.72;10395471;28;20136;-80
2022/07/08 12:01:39;;;;;;;4.45;1.80;;;;;;;23.03;44.32;101794.41;10408460;28;20110;-81
2022/07/08 12:06:47;;;;;;;6.47;1.60;;;;;;;22.10;45.38;101793.63;10403152;28;20057;-80
2022/07/08 12:11:52;;;;;;;7.05;1.77;;;;;;;21.83;46.49;101781.03;10406325;28;20091;-81
2022/07/08 12:16:56;;;;;;;4.93;1.60;;;;;;;22.42;46.16;101775.53;10401870;28;20113;-81
2022/07/08 12:22:01;;;;;;;7.15;1.90;;;;;;;23.00;45.08;101780.00;10403415;28;20053;-81
2022/07/08 12:27:06;;;;;;;4.03;1.50;;;;;;;23.25;43.79;101762.72;10398931;28;20515;-81
2022/07/08 12:32:11;;;;;;;5.50;1.17;;;;;;;22.69;44.38;101768.91;10399732;28;20057;-81
2022/07/08 12:37:16;;;;;;;2.03;1.38;;;;;;;23.16;43.90;101767.34;10402374;28;20064;-80
2022/07/08 12:42:25;;;;;;;5.05;1.58;;;;;;;22.59;44.74;101768.22;10395433;28;21196;-80
2022/07/08 12:47:29;;;;;;;4.32;1.10;;;;;;;22.81;45.42;101774.03;10396015;28;20146;-81
2022/07/08 12:52:32;;;;;;;4.63;1.42;;;;;;;23.38;44.46;101769.34;10408536;28;20122;-80
2022/07/08 12:57:35;;;;;;;3.20;1.48;;;;;;;23.61;43.90;101766.72;10407485;28;20047;-80
2022/07/08 13:02:41;;;;;;;3.00;1.25;;;;;;;23.73;44.38;101761.69;10400077;28;20502;-80
2022/07/08 13:07:44;;;;;;;3.13;1.20;;;;;;;22.62;45.42;101769.75;10397183;28;20518;-80
2022/07/08 13:12:47;;;;;;;6.05;1.55;;;;;;;22.36;47.18;101765.25;10413936;28;20203;-81
2022/07/08 13:17:51;;;;;;;3.92;1.58;;;;;;;21.17;49.05;101767.97;10405240;28;20053;-81
2022/07/08 13:22:54;;;;;;;7.25;1.48;;;;;;;22.25;47.31;101771.06;10396991;28;20057;-81
2022/07/08 13:27:57;;;;;;;4.38;1.23;;;;;;;23.88;45.34;101754.44;10391910;28;20100;-81
2022/07/08 13:33:01;;;;;;;4.82;1.48;;;;;;;24.06;44.38;101756.94;10392201;28;20049;-80
2022/07/08 13:38:04;;;;;;;3.92;1.38;;;;;;;23.39;45.65;101754.63;10396549;28;20045;-81
2022/07/08 13:43:07;;;;;;;5.65;1.33;;;;;;;23.38;46.01;101757.53;10385507;28;20049;-81
2022/07/08 13:48:11;;;;;;;5.88;1.83;;;;;;;22.18;47.90;101759.06;10402592;28;20584;-81
2022/07/08 13:53:14;;;;;;;3.58;1.42;;;;;;;22.19;48.34;101764.38;10400073;28;20045;-80
2022/07/08 13:58:17;;;;;;;4.43;1.55;;;;;;;22.78;47.28;101751.44;10395728;28;20053;-80
2022/07/08 14:03:21;;;;;;;2.95;1.42;;;;;;;22.60;46.98;101748.03;10400680;28;20060;-81
2022/07/08 14:08:24;;;;;;;4.65;1.30;;;;;;;22.52;48.47;101737.94;10403551;28;20053;-81
2022/07/08 14:13:43;;;;;;;10.32;1.40;;;;;;;22.11;49.03;101751.53;10414976;28;20057;-78
2022/07/08 14:18:47;;;;;;;3.55;1.30;;;;;;;22.10;49.86;101757.16;10410646;28;20044;-79
2022/07/08 14:23:51;;;;;;;3.05;1.08;;;;;;;20.55;53.37;101748.88;10424505;28;20057;-79
2022/07/08 14:28:54;;;;;;;1.58;1.42;;;;;;;21.12;52.42;101743.91;10412951;28;20053;-79
2022/07/08 14:33:58;;;;;;;4.82;1.33;;;;;;;21.82;50.36;101735.53;10411668;28;20049;-80
2022/07/08 14:39:01;;;;;;;2.58;1.15;;;;;;;22.60;49.08;101742.56;10407925;28;20452;-80
2022/07/08 14:44:04;;;;;;;2.63;1.40;;;;;;;23.03;48.36;101739.59;10397346;28;21709;-78
2022/07/08 14:49:08;;;;;;;3.15;1.38;;;;;;;22.23;49.46;101741.13;10415204;28;20130;-79
2022/07/08 14:54:14;;;;;;;4.20;1.30;;;;;;;22.09;50.73;101739.88;10406074;28;20041;-80
2022/07/08 14:59:17;;;;;;;3.10;1.30;;;;;;;22.51;49.23;101738.09;10413492;28;20059;-81
2022/07/08 15:04:22;;;;;;;5.28;1.80;;;;;;;22.17;49.87;101743.69;10406833;28;20059;-80
2022/07/08 15:09:25;;;;;;;3.92;1.70;;;;;;;21.89;50.96;101728.38;10411842;28;20141;-79
2022/07/08 15:14:28;;;;;;;3.28;1.58;;;;;;;23.15;49.24;101730.03;10422857;28;20058;-79
2022/07/08 15:19:32;;;;;;;2.97;1.60;;;;;;;23.13;48.33;101711.00;10400656;28;20045;-78
2022/07/08 15:24:35;;;;;;;4.88;1.40;;;;;;;23.48;47.50;101708.84;10414034;28;20061;-79
2022/07/08 15:29:38;;;;;;;5.63;1.92;;;;;;;22.17;50.05;101717.16;10420360;28;20068;-80
2022/07/08 15:34:43;;;;;;;3.42;1.40;;;;;;;22.66;49.61;101694.47;10407774;28;20132;-79
2022/07/08 15:39:46;;;;;;;3.95;1.73;;;;;;;23.55;46.58;101689.78;10403598;28;20072;-80
2022/07/08 15:44:49;;;;;;;4.05;1.45;;;;;;;23.34;47.68;101690.38;10405438;28;20132;-79
2022/07/08 15:49:53;;;;;;;3.90;1.25;;;;;;;22.27;49.84;101684.16;10403069;28;20176;-79
2022/07/08 15:54:56;;;;;;;5.25;1.33;;;;;;;21.82;49.98;101680.84;10410156;28;20113;-80
2022/07/08 15:59:59;;;;;;;4.63;1.80;;;;;;;22.71;48.37;101670.16;10407332;28;20048;-80
2022/07/08 16:05:03;;;;;;;5.78;1.52;;;;;;;24.09;45.83;101670.63;10408369;28;20049;-79
2022/07/08 16:10:06;;;;;;;4.15;1.40;;;;;;;25.02;45.02;101665.84;10411063;28;20041;-80
2022/07/08 16:15:10;;;;;;;4.32;1.50;;;;;;;23.80;46.90;101676.81;10407200;28;20577;-81
2022/07/08 16:20:14;;;;;;;5.68;1.60;;;;;;;22.25;49.56;101667.91;10405363;28;20057;-79
2022/07/08 16:25:18;;;;;;;3.00;1.60;;;;;;;21.38;52.00;101664.59;10391950;28;20180;-80
2022/07/08 16:30:20;;;;;;;7.18;1.80;;;;;;;21.59;52.18;101666.06;10396019;28;20458;-80
2022/07/08 16:35:25;;;;;;;2.90;1.48;;;;;;;22.68;49.93;101654.91;10407073;28;20057;-80
2022/07/08 16:40:27;;;;;;;7.68;1.75;;;;;;;24.57;45.50;101657.53;10383138;28;20423;-80
2022/07/08 16:45:30;;;;;;;6.00;1.73;;;;;;;27.40;40.70;101641.75;10394362;28;20057;-80
2022/07/08 16:50:34;;;;;;;6.32;1.58;;;;;;;26.93;41.16;101635.97;10406804;28;20072;-80
2022/07/08 16:55:37;;;;;;;3.88;1.40;;;;;;;26.15;41.42;101648.84;10402281;28;20639;-79
2022/07/08 17:00:40;;;;;;;4.45;1.83;;;;;;;26.67;42.60;101633.84;10401357;28;20126;-79
2022/07/08 17:05:44;;;;;;;7.00;1.92;;;;;;;31.83;33.50;101626.13;10402522;28;20435;-79
2022/07/08 17:10:47;;;;;;;5.55;1.90;;;;;;;26.20;41.97;101629.84;10399768;28;20688;-79
2022/07/08 17:15:50;;;;;;;6.43;1.73;;;;;;;27.23;39.83;101623.78;10408795;28;20227;-78
2022/07/08 17:20:54;;;;;;;8.25;1.85;;;;;;;27.25;40.23;101624.44;10399933;28;20053;-80
2022/07/08 17:25:57;;;;;;;5.05;1.85;;;;;;;27.31;40.86;101613.44;10389250;28;20037;-79
2022/07/08 17:31:00;;;;;;;6.10;1.90;;;;;;;32.11;33.06;101603.22;10387694;28;20360;-78
2022/07/08 17:36:05;;;;;;;5.30;2.28;;;;;;;29.95;35.49;101617.19;10392899;28;20076;-79
2022/07/08 17:41:08;;;;;;;3.22;1.52;;;;;;;29.07;36.44;101604.91;10399794;28;20127;-78
2022/07/08 17:46:10;;;;;;;2.83;1.80;;;;;;;24.82;43.36;101616.94;10398113;28;20194;-80
2022/07/08 17:51:16;;;;;;;7.40;2.20;;;;;;;23.61;46.85;101602.16;10401986;28;20052;-79
2022/07/08 17:56:18;;;;;;;4.90;1.65;;;;;;;24.07;46.26;101602.19;10395043;28;20777;-79
2022/07/08 18:01:22;;;;;;;6.55;2.00;;;;;;;22.41;50.50;101603.25;10394388;28;20064;-80
2022/07/08 18:06:26;;;;;;;4.10;2.25;;;;;;;21.59;52.33;101594.97;10379282;28;20060;-78
2022/07/08 18:11:34;;;;;;;5.65;2.10;;;;;;;22.44;51.76;101592.81;10400820;28;20272;-80
2022/07/08 18:16:37;;;;;;;4.65;2.20;;;;;;;22.20;51.47;101590.09;10393604;28;20065;-80
2022/07/08 18:21:42;;;;;;;6.43;2.80;;;;;;;22.23;51.55;101590.59;10391505;28;20080;-80
2022/07/08 18:26:47;;;;;;;2.80;1.60;;;;;;;22.13;51.62;101578.94;10382751;28;20057;-80
2022/07/08 18:31:51;;;;;;;3.10;1.80;;;;;;;21.73;52.40;101579.78;10394523;28;20049;-79
2022/07/08 18:36:56;;;;;;;3.75;1.95;;;;;;;21.62;53.16;101581.81;10403445;28;20064;-81
2022/07/08 18:41:59;;;;;;;2.42;2.13;;;;;;;20.72;54.99;101578.72;10410260;28;20045;-80
2022/07/08 18:47:04;;;;;;;5.10;1.80;;;;;;;20.87;54.49;101567.19;10398647;28;20053;-81
2022/07/08 18:52:09;;;;;;;4.35;1.65;;;;;;;20.59;54.81;101572.00;10403211;28;20041;-78
2022/07/08 18:57:12;;;;;;;3.53;1.80;;;;;;;20.64;54.82;101570.50;10413706;28;20049;-78
2022/07/08 19:02:14;;;;;;;4.07;1.60;;;;;;;20.78;54.79;101575.34;10399988;28;20120;-78
2022/07/08 19:07:19;;;;;;;3.20;1.60;;;;;;;20.33;55.97;101570.97;10407947;28;20049;-78
2022/07/08 19:12:22;;;;;;;4.90;1.95;;;;;;;20.36;55.57;101574.41;10404698;28;20147;-78
2022/07/08 19:17:25;;;;;;;2.78;1.80;;;;;;;20.47;55.76;101569.53;10398418;28;21356;-78
2022/07/08 19:22:29;;;;;;;2.58;1.70;;;;;;;20.07;57.05;101567.34;10406987;28;20068;-78
2022/07/08 19:27:32;;;;;;;3.17;1.70;;;;;;;20.22;56.58;101567.63;10399894;28;21084;-78
2022/07/08 19:32:35;;;;;;;3.95;2.10;;;;;;;20.16;57.23;101568.25;10395190;28;20510;-78
2022/07/08 19:37:39;;;;;;;5.72;2.60;;;;;;;20.20;57.26;101565.06;10412659;28;20114;-77
2022/07/08 19:42:42;;;;;;;4.60;1.80;;;;;;;20.27;58.15;101570.75;10411071;28;21222;-77
2022/07/08 19:47:46;;;;;;;4.15;2.20;;;;;;;19.85;61.53;101568.69;10382925;28;20187;-80
2022/07/08 19:53:07;;;;;;;8.43;2.67;;;;;;;19.26;64.98;101584.59;10401558;28;20049;-77
2022/07/08 19:58:10;;;;;;;6.18;3.42;;;;;;;19.35;64.54;101580.06;10393081;28;20064;-78
2022/07/08 20:03:13;;;;;;;8.02;2.88;;;;;;;19.40;66.84;101586.78;10382435;28;20045;-78
2022/07/08 20:08:17;;;;;;;5.82;2.90;;;;;;;19.34;70.01;101603.75;10384335;28;20057;-77
2022/07/08 20:13:20;;;;;;;7.80;3.42;;;;;;;19.23;70.84;101606.69;10395590;28;20114;-76
2022/07/08 20:18:23;;;;;;;6.90;3.15;;;;;;;19.14;70.17;101607.56;10401119;28;20142;-77
2022/07/08 20:23:27;;;;;;;4.05;2.55;;;;;;;19.10;71.39;101609.75;10399445;28;20085;-78
2022/07/08 20:28:30;;;;;;;7.55;3.22;;;;;;;19.08;70.56;101600.84;10402464;28;20045;-79
2022/07/08 20:33:33;;;;;;;4.75;3.00;;;;;;;19.11;69.13;101600.56;10396514;28;20073;-78
2022/07/08 20:38:37;;;;;;;5.75;3.15;;;;;;;18.71;69.53;101593.53;10413973;28;20041;-77
2022/07/08 20:43:40;;;;;;;4.20;2.85;;;;;;;18.95;71.29;101603.06;10413110;28;20048;-78
2022/07/08 20:48:43;;;;;;;6.05;2.45;;;;;;;19.05;72.29;101605.75;10419897;28;20048;-77
2022/07/08 20:53:47;;;;;;;4.55;2.70;;;;;;;19.07;71.62;101612.78;10405560;28;20102;-79
2022/07/08 20:58:50;;;;;;;3.88;2.60;;;;;;;19.10;71.61;101606.16;10405403;28;20079;-79
2022/07/08 21:03:53;;;;;;;4.05;2.50;;;;;;;19.10;72.21;101609.75;10415258;28;20663;-79
2022/07/08 21:08:57;;;;;;;5.93;4.03;;;;;;;18.36;78.10;101600.50;10399881;28;20049;-79
2022/07/08 21:14:00;;;;;;;7.68;3.75;;;;;;;18.01;80.43;101603.81;10399400;28;20044;-79
2022/07/08 21:19:03;;;;;;;6.55;3.58;;;;;;;17.77;81.06;101611.50;10401106;28;20148;-78
2022/07/08 21:24:07;;;;;;;6.22;3.13;;;;;;;17.69;81.39;101607.66;10394082;28;20401;-79
2022/07/08 21:29:10;;;;;;;4.60;3.47;;;;;;;17.77;81.71;101606.97;10404074;28;20053;-79
2022/07/08 21:34:13;;;;;;;6.35;3.90;;;;;;;17.68;81.42;101596.91;10395316;28;20057;-79
2022/07/08 21:39:17;;;;;;;4.15;3.20;;;;;;;17.62;80.81;101598.34;10399229;28;20300;-79
2022/07/08 21:44:20;;;;;;;4.80;3.50;;;;;;;17.66;79.89;101599.81;10393343;28;20061;-78
2022/07/08 21:49:23;;;;;;;7.82;4.45;;;;;;;17.75;81.03;101589.06;10395941;28;20111;-79
2022/07/08 21:54:30;;;;;;;7.70;4.72;;;;;;;17.69;79.15;101596.78;10394907;28;20041;-80
2022/07/08 21:59:33;;;;;;;8.05;4.57;;;;;;;17.74;79.22;101590.91;10400243;28;20066;-79
2022/07/08 22:04:36;;;;;;;6.53;4.60;;;;;;;17.73;77.77;101583.78;10398782;28;20151;-79
2022/07/08 22:09:40;;;;;;;7.25;4.32;;;;;;;17.75;78.47;101589.06;10402836;28;20053;-78
2022/07/08 22:14:42;;;;;;;7.78;4.40;;;;;;;17.67;79.16;101584.34;10394861;28;20152;-79
2022/07/08 22:19:45;;;;;;;5.15;4.20;;;;;;;17.71;79.94;101577.63;10403774;28;20053;-80
2022/07/08 22:24:49;;;;;;;5.47;3.90;;;;;;;17.68;80.39;101577.91;10403426;28;20051;-79
2022/07/08 22:29:52;;;;;;;6.03;5.35;;;;;;;17.51;79.01;101581.31;10413864;28;20111;-80
2022/07/08 22:34:55;;;;;;;11.52;4.95;;;;;;;17.30;79.40;101592.28;10406144;28;20047;-79
2022/07/08 22:39:59;;;;;;;11.65;4.68;;;;;;;17.29;79.86;101587.88;10400008;28;20052;-78
2022/07/08 22:45:02;;;;;;;5.68;4.40;;;;;;;17.29;80.26;101591.44;10404930;28;20072;-80
2022/07/08 22:50:06;;;;;;;9.70;5.10;;;;;;;17.29;80.96;101591.44;10413614;28;20139;-80
2022/07/08 22:55:10;;;;;;;8.52;5.65;;;;;;;17.26;80.04;101586.28;10400400;28;20183;-80
2022/07/08 23:00:13;;;;;;;6.75;4.50;;;;;;;17.15;80.15;101583.69;10408048;28;20466;-80
2022/07/08 23:05:16;;;;;;;9.05;5.28;;;;;;;16.91;79.12;101573.13;10411723;28;20141;-79
2022/07/08 23:10:21;;;;;;;7.30;5.55;;;;;;;16.94;79.15;101581.00;10413891;28;20059;-79
2022/07/08 23:15:24;;;;;;;5.65;5.07;;;;;;;17.10;79.58;101575.91;10386714;28;20585;-78